Pratt, Minnesota
Current Conditions -  °F | °C
As of 3:35 AM on Friday 28 Nov 2014 (Local Time) from KOWA Reporting Station
Broken Clouds Broken Clouds  
Wind Chill: -5°   Ceiling: 11000
Heat Index: 12°   Visibility: 10mi
Dew Point:   Wind: 17mph
Humidity: 79%   Direction: 130°SE
Pressure: 30.05"   Gusts: 23mph
Location:  44.0575°N, 93.2082°W
Report Text: KOWA 280935Z AUTO 13015G20KT 10SM SCT065 BKN110 M11/M14 A3005 RMK AO2
Loading
Personal Weather Stations






























Interactive Weather Map New forecast layout! Learn more

10-Day Weather Forecast

Advertisements
Track Severe Weather on mobile